Terminal Aerodrome Forecast
Issued by NWS

Home | Current Version | Previous Version | Text Only | Print | Product List | Glossary On
Versions: 1 2 3 4 5 6 7 8 9 10 11 12 13 14 15 16 17 18 19 20 21 22 23 24 25 26 27 28 29 30 31
000
FTUS42 KRAH 211123
TAFINT
TAF
KINT 211123Z 2112/2212 00000KT 6SM BR OVC025
      TEMPO 2112/2115 OVC035
     FM211800 07006KT P6SM BKN035
     FM220500 05007KT P6SM -RA OVC050
     FM220900 04008KT 3SM -RA BR OVC006=

USA.gov is the U.S. government's official web portal to all federal, state and local government web resources and services.